Watauga, Texas
Current Conditions -  °F | °C
As of 9:53 PM on Wednesday 22 Oct 2014 (Local Time) from KFTW Reporting Station
Clear Clear  
Wind Chill: 74°   Ceiling: Unl
Heat Index: 74°   Visibility: 10mi
Dew Point: 57°   Wind: 7mph
Humidity: 55%   Direction: 100°E
Pressure: 30.1"   Gusts: NA
Location:  32.8687°N, 97.2516°W
Report Text: KFTW 230253Z 10006KT 10SM CLR 23/14 A3010 RMK AO2 SLP185 T02330139 51007
Loading
Personal Weather Stations






























Interactive Weather Map
Tropical Storm Tracking
New forecast layout! Learn more

10-Day Weather Forecast

Advertisements
Track Severe Weather on mobile